Home > Products > Valid Products > TAF

000
FTUS44 KLCH 222300
TAFARA
TAF
KARA 222320Z 2300/2324 03006KT P6SM SKC
     FM231500 06009KT P6SM SCT250=



000
FTUS44 KLCH 222300
TAFAEX
TAF
KAEX 222320Z 2300/2324 03004KT P6SM SKC
     FM231500 05007KT P6SM SCT250=



000
FTUS44 KLCH 222300
TAFLCH
TAF
KLCH 222320Z 2300/2324 05005KT P6SM SKC
     FM231500 06009KT P6SM SCT250=



000
FTUS44 KLCH 222300
TAFBPT
TAF
KBPT 222320Z 2300/2324 04006KT P6SM SKC
     FM231500 06009KT P6SM SCT250=



000
FTUS44 KLCH 222300
TAFLFT
TAF
KLFT 222320Z 2300/2324 05005KT P6SM SKC
     FM231500 06007KT P6SM SCT250=



000
FTUS44 KLCH 221700
TAFARA
TAF
KARA 221726Z 2218/2318 05010KT P6SM SCT250
     FM230200 03005KT P6SM SCT250
     FM231500 06009KT P6SM SCT250=



000
FTUS44 KLCH 221700
TAFLCH
TAF
KLCH 221726Z 2218/2318 06010KT P6SM SCT250
     FM230300 04004KT P6SM SCT250
     FM231500 06009KT P6SM SCT250=



000
FTUS44 KLCH 221700
TAFARA
TAF
KARA 221726Z 2218/2318 05010KT P6SM SCT250
     FM230200 03005KT P6SM SCT250
     FM231500 06009KT P6SM SCT250=



000
FTUS44 KLCH 221700
TAFBPT
TAF
KBPT 221726Z 2218/2318 07010KT P6SM SCT040 SCT250
     FM230300 04005KT P6SM SCT250
     FM231500 06009KT P6SM SCT250=



000
FTUS44 KLCH 221700
TAFAEX
TAF
KAEX 221726Z 2218/2318 07008KT P6SM SCT250
     FM230200 03003KT P6SM SCT250
     FM231500 05007KT P6SM SCT250=



000
FTUS44 KLCH 221700
TAFLFT
TAF
KLFT 221726Z 2218/2318 07009KT P6SM SCT250
     FM230200 03003KT P6SM SCT250
     FM231500 06007KT P6SM SCT250=



000
FTUS44 KLCH 221700
TAFLCH
TAF
KLCH 221726Z 2218/2318 06010KT P6SM SCT250
     FM230300 04004KT P6SM SCT250
     FM231500 06009KT P6SM SCT250=



000
FTUS44 KLCH 221700
TAFAEX
TAF
KAEX 221726Z 2218/2318 07008KT P6SM SCT250
     FM230200 03003KT P6SM SCT250
     FM231500 05007KT P6SM SCT250=



000
FTUS44 KLCH 221700
TAFLFT
TAF
KLFT 221726Z 2218/2318 07009KT P6SM SCT250
     FM230200 03003KT P6SM SCT250
     FM231500 06007KT P6SM SCT250=



000
FTUS44 KLCH 221700
TAFBPT
TAF
KBPT 221726Z 2218/2318 07010KT P6SM SCT040 SCT250
     FM230300 04005KT P6SM SCT250
     FM231500 06009KT P6SM SCT250=



000
FTUS44 KLCH 221100
TAFLFT
TAF
KLFT 221120Z 2212/2312 04004KT P6SM SKC
     FM221400 06007KT P6SM SCT250=



000
FTUS44 KLCH 221100
TAFARA
TAF
KARA 221120Z 2212/2312 05004KT P6SM SKC
     FM221400 05009KT P6SM SCT250=



000
FTUS44 KLCH 221100
TAFBPT
TAF
KBPT 221120Z 2212/2312 04004KT P6SM FEW250
     FM221400 06010KT P6SM SCT250=



000
FTUS44 KLCH 221100
TAFLCH
TAF
KLCH 221120Z 2212/2312 VRB03KT P6SM SKC
     FM221400 06009KT P6SM SCT250=



000
FTUS44 KLCH 221100
TAFAEX
TAF
KAEX 221120Z 2212/2312 VRB03KT 5SM BR SKC
     FM221400 06007KT P6SM SCT250=



000
FTUS44 KLCH 220500
TAFARA
TAF
KARA 220520Z 2206/2306 05008KT P6SM SCT250=



000
FTUS44 KLCH 220500
TAFAEX
TAF
KAEX 220520Z 2206/2306 02005KT P6SM SCT250=



000
FTUS44 KLCH 220500
TAFLFT
TAF
KLFT 220520Z 2206/2306 05006KT P6SM SCT250=



000
FTUS44 KLCH 220500
TAFLCH
TAF
KLCH 220520Z 2206/2306 00000KT P6SM SCT250
     FM221400 06007KT P6SM FEW035 SCT250=



000
FTUS44 KLCH 220500
TAFBPT
TAF
KBPT 220520Z 2206/2306 04004KT P6SM SCT250
     FM221400 06008KT P6SM FEW035 SCT250=



000
FTUS44 KLCH 220500
TAFLFT
TAF
KLFT 220520Z 2206/2306 05006KT P6SM SCT250=



000
FTUS44 KLCH 220500
TAFARA
TAF
KARA 220520Z 2206/2306 05008KT P6SM SCT250=



000
FTUS44 KLCH 220500
TAFLCH
TAF
KLCH 220520Z 2206/2306 00000KT P6SM SCT250
     FM221400 06007KT P6SM FEW035 SCT250=



000
FTUS44 KLCH 220500
TAFAEX
TAF
KAEX 220520Z 2206/2306 02005KT P6SM SCT250=



000
FTUS44 KLCH 220500
TAFBPT
TAF
KBPT 220520Z 2206/2306 04004KT P6SM SCT250
     FM221400 06008KT P6SM FEW035 SCT250=



000
FTUS44 KLCH 220200 AAA
TAFLCH
TAF AMD
KLCH 220205Z 2202/2224 00000KT P6SM SCT250
     FM221400 06010KT P6SM SCT250=



000
FTUS44 KLCH 220200 AAA
TAFLCH
TAF AMD
KLCH 220205Z 2202/2224 00000KT P6SM SCT250
     FM221400 06010KT P6SM SCT250=



000
FTUS44 KLCH 212300
TAFLCH
TAF
KLCH 212328Z 2200/2224 05006KT P6SM SCT250=



000
FTUS44 KLCH 212300
TAFAEX
TAF
KAEX 212328Z 2200/2224 02005KT P6SM SCT250=



000
FTUS44 KLCH 212300
TAFARA
TAF
KARA 212328Z 2200/2224 03005KT P6SM SCT250=



000
FTUS44 KLCH 212300
TAFLFT
TAF
KLFT 212328Z 2200/2224 04005KT P6SM SCT250=



000
FTUS44 KLCH 212300
TAFBPT
TAF
KBPT 212328Z 2200/2224 05008KT P6SM SCT250=



000
FTUS44 KLCH 211700
TAFBPT
TAF
KBPT 211720Z 2118/2218 05011KT P6SM SCT250
     FM212300 06005KT P6SM SCT250=



000
FTUS44 KLCH 211700
TAFARA
TAF
KARA 211720Z 2118/2218 05010KT P6SM SCT250
     FM212300 06005KT P6SM SCT250=



000
FTUS44 KLCH 211700
TAFLFT
TAF
KLFT 211720Z 2118/2218 05007KT P6SM SCT250
     FM212300 06004KT P6SM SCT250=



000
FTUS44 KLCH 211700
TAFLCH
TAF
KLCH 211720Z 2118/2218 05011KT P6SM SCT250
     FM212300 06005KT P6SM SCT250=



000
FTUS44 KLCH 211700
TAFAEX
TAF
KAEX 211720Z 2118/2218 06006KT P6SM SCT250
     FM212300 VRB03KT P6SM SCT250=



000
FTUS44 KLCH 211100
TAFLFT
TAF
KLFT 211123Z 2112/2212 00000KT P6SM FEW250
     FM211400 04007KT P6SM SCT250
     FM220000 VRB03KT P6SM SCT250=



000
FTUS44 KLCH 211100
TAFBPT
TAF
KBPT 211123Z 2112/2212 04004KT P6SM SCT250
     FM211500 06010KT P6SM SCT250
     FM212300 06005KT P6SM SCT250=



000
FTUS44 KLCH 211100
TAFAEX
TAF
KAEX 211123Z 2112/2212 00000KT P6SM SKC
     FM211500 05006KT P6SM SCT250
     FM220000 VRB03KT P6SM SCT250=



000
FTUS44 KLCH 211100
TAFARA
TAF
KARA 211123Z 2112/2212 02005KT P6SM FEW250
     FM211600 05010KT P6SM SCT250
     FM212300 04005KT P6SM SCT250=



000
FTUS44 KLCH 211100
TAFLCH
TAF
KLCH 211123Z 2112/2212 04004KT P6SM SCT250
     FM211600 06010KT P6SM SCT250
     FM212300 07005KT P6SM SCT250=



000
FTUS44 KLCH 211100
TAFAEX
TAF
KAEX 211123Z 2112/2212 00000KT P6SM SKC
     FM211500 05006KT P6SM SCT250
     FM220000 VRB03KT P6SM SCT250=



000
FTUS44 KLCH 211100
TAFBPT
TAF
KBPT 211123Z 2112/2212 04004KT P6SM SCT250
     FM211500 06010KT P6SM SCT250
     FM212300 06005KT P6SM SCT250=



000
FTUS44 KLCH 211100
TAFLFT
TAF
KLFT 211123Z 2112/2212 00000KT P6SM FEW250
     FM211400 04007KT P6SM SCT250
     FM220000 VRB03KT P6SM SCT250=



000
FTUS44 KLCH 211100
TAFARA
TAF
KARA 211123Z 2112/2212 02005KT P6SM FEW250
     FM211600 05010KT P6SM SCT250
     FM212300 04005KT P6SM SCT250=



000
FTUS44 KLCH 211100
TAFLCH
TAF
KLCH 211123Z 2112/2212 04004KT P6SM SCT250
     FM211600 06010KT P6SM SCT250
     FM212300 07005KT P6SM SCT250=



000
FTUS44 KLCH 210500
TAFBPT
TAF
KBPT 210520Z 2106/2206 04004KT P6SM SCT250
     FM211500 06010KT P6SM SCT250
     FM212300 06005KT P6SM SCT250=



000
FTUS44 KLCH 210500
TAFARA
TAF
KARA 210520Z 2106/2206 02005KT P6SM FEW250
     FM211600 05010KT P6SM SCT250
     FM212300 04005KT P6SM SCT250=



000
FTUS44 KLCH 210500
TAFAEX
TAF
KAEX 210520Z 2106/2206 00000KT P6SM SKC
     FM211500 05006KT P6SM SCT250
     FM220000 VRB03KT P6SM SCT250=



000
FTUS44 KLCH 210500
TAFLFT
TAF
KLFT 210520Z 2106/2206 00000KT P6SM FEW250
     FM211400 04007KT P6SM SCT250
     FM220000 VRB03KT P6SM SCT250=



000
FTUS44 KLCH 210500
TAFLCH
TAF
KLCH 210520Z 2106/2206 04004KT P6SM SCT250
     FM211600 06010KT P6SM SCT250
     FM212300 07005KT P6SM SCT250=



000
FTUS44 KLCH 202300
TAFLCH
TAF
KLCH 202331Z 2100/2124 04004KT P6SM SCT250
     FM211600 06010KT P6SM SCT250=



000
FTUS44 KLCH 202300
TAFBPT
TAF
KBPT 202331Z 2100/2124 04005KT P6SM SCT250
     FM211500 06011KT P6SM SCT250=



000
FTUS44 KLCH 202300
TAFAEX
TAF
KAEX 202331Z 2100/2124 04004KT P6SM SCT250=



000
FTUS44 KLCH 202300
TAFARA
TAF
KARA 202331Z 2100/2124 03006KT P6SM SCT250
     FM211600 05010KT P6SM SCT250=



000
FTUS44 KLCH 202300
TAFLFT
TAF
KLFT 202331Z 2100/2124 03004KT P6SM SCT250=



000
FTUS44 KLCH 201700
TAFAEX
TAF
KAEX 201720Z 2018/2118 04004KT P6SM FEW250=



000
FTUS44 KLCH 201700
TAFLCH
TAF
KLCH 201720Z 2018/2118 04006KT P6SM SCT250=



000
FTUS44 KLCH 201700
TAFARA
TAF
KARA 201720Z 2018/2118 03006KT P6SM SCT250=



000
FTUS44 KLCH 201700
TAFBPT
TAF
KBPT 201720Z 2018/2118 05007KT P6SM SCT250=



000
FTUS44 KLCH 201700
TAFLFT
TAF
KLFT 201720Z 2018/2118 03005KT P6SM SCT250=



000
FTUS44 KLCH 201100
TAFARA
TAF
KARA 201129Z 2012/2112 01006KT P6SM SCT200=



000
FTUS44 KLCH 201100
TAFLCH
TAF
KLCH 201129Z 2012/2112 04006KT P6SM SCT200=



000
FTUS44 KLCH 201100
TAFLFT
TAF
KLFT 201129Z 2012/2112 02005KT P6SM SCT200=



000
FTUS44 KLCH 201100
TAFAEX
TAF
KAEX 201129Z 2012/2112 VRB05KT P6SM FEW200=



000
FTUS44 KLCH 201100
TAFBPT
TAF
KBPT 201129Z 2012/2112 05006KT P6SM SCT200=



000
FTUS44 KLCH 200500
TAFAEX
TAF
KAEX 200520Z 2006/2106 04003KT P6SM FEW200=



000
FTUS44 KLCH 200500
TAFBPT
TAF
KBPT 200520Z 2006/2106 06006KT P6SM SCT200=



000
FTUS44 KLCH 200500
TAFLCH
TAF
KLCH 200520Z 2006/2106 05006KT P6SM SCT200=



000
FTUS44 KLCH 200500
TAFARA
TAF
KARA 200520Z 2006/2106 04006KT P6SM SCT200=



000
FTUS44 KLCH 200500
TAFLFT
TAF
KLFT 200520Z 2006/2106 04004KT P6SM SCT200=



    US Dept of Commerce
    National Oceanic and Atmospheric Administration
    National Weather Service
    1325 East West Highway
    Silver Spring, MD 20910
    Page Author: NWS Internet Services Team
Disclaimer
Information Quality
Credits
Glossary
Privacy Policy
Freedom of Information Act (FOIA)
About Us
Career Opportunities